下地島の過去48時間の天気

下地島 (Shimojishima)

現在時刻: 10/20 00:39 JST (10/19 15:39 UTC) 以下の時間は現地時間です。

過去48時間のMETAR気象情報
時間 風向 風速(m/s) 視程 気温(℃) 湿度(%) 気圧(hPa) 天気現象
19 19:00 10 10km以上 24 83 1016 弱いしゅう雨
19 18:00 8 10km以上 25 69 1016
19 17:00 8 10km以上 26 65 1015
19 16:00 9 10km以上 26 70 1016 弱いしゅう雨
19 15:00 8 10km以上 27 66 1015 周辺でしゅう雨
19 14:00 8 10km以上 27 70 1015 周辺でしゅう雨
19 13:00 9 10km以上 28 70 1016
19 12:00 8 10km以上 28 66 1017
19 11:00 7 10km以上 28 66 1018
19 10:00 8 10km以上 27 66 1018 周辺でしゅう雨
19 09:00 4 10km以上 24 83 1018 弱いしゅう雨
19 08:00 北北東 5 10km以上 25 74 1017 周辺でしゅう雨
19 07:00 8 10km以上 23 89 1016 弱いしゅう雨
18 19:00 北北東 8 10km以上 25 74 1016 周辺でしゅう雨
18 18:00 北北東 7 10km以上 25 69 1016
18 17:00 北北東 7 10km以上 26 65 1015
18 16:00 7 10km以上 27 58 1015
18 15:00 7 10km以上 26 65 1016
18 14:00 北北東 7 10km以上 25 69 1016 弱いしゅう雨
18 13:00 北北東 6 10km以上 26 61 1017 周辺でしゅう雨
18 12:00 北北東 6 10km以上 26 61 1017
18 11:00 北東 6 10km以上 26 61 1017
18 10:00 北北東 8 10km以上 26 61 1018
18 09:00 北北東 8 10km以上 25 65 1018 周辺でしゅう雨
18 08:00 北北東 7 10km以上 25 61 1017
18 07:00 北北東 8 10km以上 24 65 1017
RORS 191000Z 01019KT 9999 -SHRA SCT027 SCT050 24/21 Q1016
RORS 190900Z 01016KT 9999 FEW025 BKN150 25/19 Q1016
RORS 190800Z 36016KT 9999 FEW028 SCT140 26/19 Q1015
RORS 190700Z 35017KT 9999 -SHRA SCT027 SCT040 26/20 Q1016
RORS 190600Z 36016KT 9999 VCSH SCT022 27/20 Q1015
RORS 190500Z 35015KT 9999 VCSH SCT027 27/21 Q1015
RORS 190400Z 36017KT 9999 FEW020 SCT024 28/22 Q1016
RORS 190300Z 35015KT 9999 FEW023 SCT029 28/21 Q1017
RORS 190200Z 35014KT 9999 SCT029 28/21 Q1018
RORS 190100Z 35015KT 9999 VCSH FEW027 SCT036 27/20 Q1018
RORS 190000Z 36008KT 9999 -SHRA SCT026 BKN044 24/21 Q1018
RORS 182300Z 02010KT 9999 VCSH FEW030 SCT050 25/20 Q1017
RORS 182200Z 36015KT 9999 -SHRA BKN028 BKN050 23/21 Q1016
RORS 181000Z 02015KT 9999 VCSH FEW025 BKN060 25/20 Q1016
RORS 180900Z 03014KT 9999 SCT027 25/19 Q1016
RORS 180800Z 02014KT 9999 SCT033 SCT045 26/19 Q1015
RORS 180700Z 01013KT 9999 FEW034 27/18 Q1015
RORS 180600Z 01013KT 9999 FEW033 BKN050 26/19 Q1016
RORS 180500Z 02013KT 9999 -SHRA SCT032 BKN050 25/19 Q1016
RORS 180400Z 03012KT 9999 VCSH FEW037 BKN050 26/18 Q1017
RORS 180300Z 03011KT 9999 SCT037 BKN050 26/18 Q1017
RORS 180200Z 04012KT 9999 FEW035 BKN050 26/18 Q1017
RORS 180100Z 03015KT 9999 FEW035 BKN060 26/18 Q1018
RORS 180000Z 02015KT 9999 VCSH FEW035 BKN050 25/18 Q1018
RORS 172300Z 03014KT 9999 FEW036 SCT040 BKN050 25/17 Q1017
RORS 172200Z 03015KT 9999 FEW035 SCT040 BKN060 24/17 Q1017